Time;durP1;ratioP1;P1;durP2;ratioP2;P2;SDS_P1;SDS_P2;PMS_P1;PMS_P2;Temp;Humidity;BMP_temperature;BMP_pressure;BME280_temperature;BME280_humidity;BME280_pressure;Samples;Min_cycle;Max_cycle;Signal;HPM_P1;HPM_P2
2021/05/21 00:00:30;;;;;;;21.17;4.90;;;12.30;99.90;;;11.94;79.07;100973.63;4121732;28;20031;-72
2021/05/21 00:02:31;;;;;;;24.45;5.72;;;12.30;99.90;;;11.98;79.58;100977.59;4120209;28;20059;-73
2021/05/21 00:04:32;;;;;;;23.40;5.20;;;12.30;99.90;;;11.98;79.47;100971.47;4121587;28;20030;-73
2021/05/21 00:06:33;;;;;;;19.58;4.03;;;12.30;99.90;;;12.05;79.71;100975.16;4121326;28;20126;-73
2021/05/21 00:08:34;;;;;;;18.23;4.45;;;12.40;99.90;;;12.00;79.69;100970.34;4120101;28;20038;-73
2021/05/21 00:10:35;;;;;;;23.17;5.82;;;12.40;99.90;;;11.99;79.98;100975.78;4120370;28;20426;-72
2021/05/21 00:12:36;;;;;;;24.48;5.70;;;12.30;99.90;;;11.90;80.41;100974.09;4121460;28;20027;-72
2021/05/21 00:14:37;;;;;;;27.27;5.40;;;12.30;99.90;;;11.95;80.02;100961.22;4121358;28;20033;-72
2021/05/21 00:16:38;;;;;;;23.38;5.43;;;12.30;99.90;;;11.96;80.21;100957.59;4121248;28;20066;-72
2021/05/21 00:18:39;;;;;;;17.02;3.92;;;12.30;99.90;;;11.91;80.73;100954.63;4121469;28;20023;-73
2021/05/21 00:20:40;;;;;;;31.15;5.72;;;12.30;99.90;;;11.96;80.16;100939.94;4121126;28;20394;-72
2021/05/21 00:22:41;;;;;;;19.92;5.43;;;12.40;99.90;;;12.03;80.53;100950.69;4121008;28;20085;-73
2021/05/21 00:24:42;;;;;;;18.90;4.47;;;12.30;99.90;;;11.91;80.55;100951.97;4121190;28;20502;-72
2021/05/21 00:26:43;;;;;;;27.67;7.53;;;12.30;99.90;;;11.96;80.55;100947.84;4121307;28;20019;-72
2021/05/21 00:28:43;;;;;;;32.60;5.47;;;12.30;99.90;;;11.98;80.53;100953.81;4121221;28;20031;-73
2021/05/21 00:30:44;;;;;;;21.45;4.57;;;12.40;99.90;;;11.98;80.94;100945.88;4121178;28;20023;-72
2021/05/21 00:32:45;;;;;;;23.08;6.13;;;12.40;99.90;;;11.96;80.43;100932.00;4120993;28;20035;-73
2021/05/21 00:34:46;;;;;;;25.83;4.65;;;12.30;99.90;;;11.83;80.83;100925.47;4121147;28;20029;-73
2021/05/21 00:36:47;;;;;;;21.67;5.68;;;12.30;99.90;;;11.96;80.91;100925.88;4121064;28;20034;-73
2021/05/21 00:38:48;;;;;;;19.45;5.60;;;12.30;99.90;;;12.03;80.46;100937.47;4119858;28;20031;-73
2021/05/21 00:40:49;;;;;;;23.08;4.82;;;12.30;99.90;;;11.95;80.04;100934.78;4120947;28;20038;-73
2021/05/21 00:42:50;;;;;;;25.98;5.15;;;12.30;99.90;;;11.91;80.57;100922.91;4120023;28;20486;-72
2021/05/21 00:44:57;;;;;;;21.88;4.32;;;12.30;99.90;;;12.04;80.06;100931.19;4120948;28;20034;-72
2021/05/21 00:46:58;;;;;;;16.88;4.13;;;12.40;99.90;;;11.85;80.27;100918.25;4121042;28;20027;-73
2021/05/21 00:48:59;;;;;;;20.90;5.03;;;12.40;99.90;;;11.96;80.96;100913.50;4119587;28;20027;-73
2021/05/21 00:51:00;;;;;;;20.88;4.68;;;12.30;99.90;;;11.96;80.62;100905.56;4120646;28;20073;-72
2021/05/21 00:53:04;;;;;;;31.83;5.43;;;12.40;99.90;;;11.93;80.20;100915.63;4119367;28;20054;-73
2021/05/21 00:55:06;;;;;;;;;;;12.40;99.90;;;11.91;80.82;100907.88;4120038;28;20038;-72
2021/05/21 00:57:07;;;;;;;21.65;4.10;;;12.40;99.90;;;11.95;80.53;100914.47;4119549;28;19909;-73
2021/05/21 00:59:09;;;;;;;17.25;4.80;;;12.40;99.90;;;11.89;81.49;100923.03;4119824;28;20100;-72
2021/05/21 01:01:10;;;;;;;26.40;4.97;;;12.30;99.90;;;11.99;80.91;100905.25;4120815;28;20035;-72
2021/05/21 01:03:10;;;;;;;24.70;5.03;;;12.40;99.90;;;11.99;80.62;100910.53;4120707;28;20429;-73
2021/05/21 01:05:13;;;;;;;24.00;5.63;;;12.40;99.90;;;11.96;80.72;100905.56;4120550;28;20027;-72
2021/05/21 01:07:13;;;;;;;21.65;4.53;;;12.40;99.90;;;12.01;80.35;100908.53;4120425;28;20031;-73
2021/05/21 01:09:14;;;;;;;15.95;5.30;;;12.40;99.90;;;11.95;80.98;100893.31;4120795;28;20038;-73
2021/05/21 01:11:15;;;;;;;26.00;6.40;;;12.40;99.90;;;11.95;80.70;100890.69;4120525;28;20026;-72
2021/05/21 01:13:16;;;;;;;13.90;4.93;;;12.40;99.90;;;12.04;80.83;100879.13;4120377;28;20130;-73
2021/05/21 01:15:17;;;;;;;23.73;5.80;;;12.50;99.90;;;11.91;81.28;100870.84;4120724;28;20067;-73
2021/05/21 01:17:19;;;;;;;27.65;5.95;;;12.50;99.90;;;11.94;81.13;100891.69;4120480;28;20077;-72
2021/05/21 01:19:20;;;;;;;24.75;5.47;;;12.40;99.90;;;11.94;81.32;100896.13;4120575;28;20023;-73
2021/05/21 01:21:21;;;;;;;27.05;4.63;;;12.40;99.90;;;12.00;81.57;100885.75;4120223;28;20023;-73
2021/05/21 01:23:22;;;;;;;24.50;6.20;;;12.40;99.90;;;11.97;81.57;100894.00;4120652;28;20078;-72
2021/05/21 01:25:23;;;;;;;16.38;5.43;;;12.40;99.90;;;11.94;81.08;100886.41;4120571;28;20027;-72
2021/05/21 01:27:25;;;;;;;22.52;4.78;;;12.40;99.90;;;11.88;81.60;100892.31;4120596;28;20023;-72
2021/05/21 01:29:27;;;;;;;23.92;4.93;;;12.40;99.90;;;11.89;81.74;100878.09;4120260;28;20027;-73
2021/05/21 01:31:29;;;;;;;22.70;4.07;;;12.40;99.90;;;11.99;81.72;100873.50;4119466;28;20023;-72
2021/05/21 01:33:30;;;;;;;28.35;5.47;;;12.30;99.90;;;11.99;81.22;100864.75;4120421;28;20488;-72
2021/05/21 01:35:31;;;;;;;22.52;4.65;;;12.50;99.90;;;12.03;80.98;100861.63;4103147;29;20074;-73
2021/05/21 01:37:32;;;;;;;19.85;4.50;;;12.50;99.90;;;11.94;81.13;100875.00;4119967;28;20474;-72
2021/05/21 01:39:35;;;;;;;20.60;4.65;;;12.40;99.90;;;12.02;81.17;100862.63;4119439;28;20028;-72
2021/05/21 01:41:38;;;;;;;27.63;5.95;;;12.40;99.90;;;12.09;80.70;100871.56;4120406;28;20041;-72
2021/05/21 01:43:39;;;;;;;22.00;5.60;;;12.50;99.90;;;12.10;80.77;100862.63;4120287;28;20034;-73
2021/05/21 01:45:41;;;;;;;24.30;5.20;;;12.40;99.90;;;11.98;80.74;100855.16;4119826;28;20390;-72
2021/05/21 01:47:46;;;;;;;25.75;6.85;;;12.50;99.90;;;11.91;80.87;100849.72;4119147;28;20035;-72
2021/05/21 01:49:47;;;;;;;22.33;5.72;;;12.40;99.90;;;11.93;80.35;100838.97;4119008;28;20033;-72
2021/05/21 01:51:58;;;;;;;24.88;5.88;;;12.40;99.90;;;12.05;80.26;100850.88;4118834;28;20083;-73
2021/05/21 01:54:13;;;;;;;26.48;5.85;;;12.40;99.90;;;12.00;80.80;100847.91;4120234;28;20434;-73
2021/05/21 01:56:14;;;;;;;19.80;4.70;;;12.50;99.90;;;11.95;80.82;100832.50;4118885;28;20039;-72
2021/05/21 01:58:14;;;;;;;26.48;5.53;;;12.40;99.90;;;11.93;80.54;100836.31;4120197;28;20098;-72
2021/05/21 02:00:16;;;;;;;22.13;5.20;;;12.50;99.90;;;12.01;80.36;100842.44;4119992;28;20031;-73
2021/05/21 02:02:17;;;;;;;26.17;4.82;;;12.50;99.90;;;12.07;80.21;100833.84;4119991;28;20023;-73
2021/05/21 02:04:28;;;;;;;16.75;4.45;;;12.50;99.90;;;12.06;80.72;100842.81;4119090;28;20061;-73
2021/05/21 02:06:30;;;;;;;20.85;5.32;;;12.50;99.90;;;11.99;80.56;100833.03;4119789;28;20030;-73
2021/05/21 02:08:31;;;;;;;20.45;5.07;;;12.50;99.90;;;12.03;81.42;100859.00;4119914;28;20038;-73
2021/05/21 02:10:32;;;;;;;22.42;4.43;;;12.40;99.90;;;12.06;81.56;100842.81;4109426;28;20113;-73
2021/05/21 02:12:35;;;;;;;21.98;4.70;;;12.50;99.90;;;12.09;80.74;100829.25;4118756;28;20031;-73
2021/05/21 02:14:36;;;;;;;21.25;4.60;;;12.50;99.90;;;11.96;81.10;100826.25;4134752;28;20085;-72
2021/05/21 02:16:37;;;;;;;21.67;4.13;;;12.50;99.90;;;11.89;81.46;100833.16;4118650;28;20520;-73
2021/05/21 02:18:38;;;;;;;22.98;4.65;;;12.50;99.90;;;12.06;80.93;100845.44;4118704;28;20042;-72
2021/05/21 02:20:41;;;;;;;20.75;4.93;;;12.60;99.90;;;12.10;80.94;100835.34;4120069;28;20073;-73
2021/05/21 02:22:42;;;;;;;28.17;5.07;;;12.60;99.90;;;12.13;80.88;100843.78;4119675;28;20027;-72
2021/05/21 02:24:43;;;;;;;25.63;5.47;;;12.50;99.90;;;12.08;80.86;100835.53;4119679;28;20047;-73
2021/05/21 02:26:44;;;;;;;21.80;6.30;;;12.60;99.90;;;12.09;80.45;100823.97;4118943;28;20035;-73
2021/05/21 02:28:45;;;;;;;25.10;5.38;;;12.60;99.90;;;11.99;80.85;100820.63;4119947;28;20027;-73
2021/05/21 02:30:46;;;;;;;26.88;7.72;;;12.60;99.90;;;11.99;80.88;100818.00;4118596;28;20038;-73
2021/05/21 02:32:47;;;;;;;27.77;4.80;;;12.60;99.90;;;11.97;81.20;100814.69;4118503;28;20023;-73
2021/05/21 02:34:48;;;;;;;25.40;4.97;;;12.50;99.90;;;12.02;81.35;100809.72;4118599;28;20035;-73
2021/05/21 02:36:49;;;;;;;23.15;5.53;;;12.50;99.90;;;11.98;81.29;100818.13;4119537;28;20042;-73
2021/05/21 02:38:50;;;;;;;24.65;4.50;;;12.50;99.90;;;11.96;81.20;100815.69;4119772;28;20027;-73
2021/05/21 02:40:51;;;;;;;17.00;4.03;;;12.50;99.90;;;11.91;80.88;100794.19;4118453;28;20027;-73
2021/05/21 02:42:52;;;;;;;21.88;5.32;;;12.50;99.90;;;11.92;80.10;100793.19;4120078;28;20038;-72
2021/05/21 02:44:53;;;;;;;29.27;6.85;;;12.50;99.90;;;11.94;80.47;100807.09;4119783;28;20087;-72
2021/05/21 02:46:54;;;;;;;26.17;4.75;;;12.40;99.90;;;11.98;80.86;100803.09;4118618;28;20027;-72
2021/05/21 02:48:55;;;;;;;21.95;5.10;;;12.40;99.90;;;11.93;80.24;100788.72;4119587;28;20047;-73
2021/05/21 02:50:56;;;;;;;25.45;6.55;;;12.50;99.90;;;11.98;80.41;100792.53;4118408;28;20053;-73
2021/05/21 02:52:57;;;;;;;20.58;4.03;;;12.50;99.90;;;12.02;79.95;100804.44;4118585;28;20062;-73
2021/05/21 02:54:58;;;;;;;21.88;5.15;;;12.50;99.90;;;12.01;80.15;100792.22;4119642;28;20042;-73
2021/05/21 02:56:59;;;;;;;30.63;7.25;;;12.50;99.90;;;11.91;79.67;100765.13;4119645;28;20023;-72
2021/05/21 02:59:00;;;;;;;18.35;4.13;;;12.50;99.90;;;11.94;79.50;100775.38;4119898;28;20512;-73
2021/05/21 03:01:01;;;;;;;26.38;5.18;;;12.50;99.90;;;11.99;79.86;100778.34;4119736;28;20073;-73
2021/05/21 03:03:02;;;;;;;24.23;6.38;;;12.40;99.90;;;11.96;79.97;100776.03;4118282;28;20069;-73
2021/05/21 03:05:03;;;;;;;22.15;5.07;;;12.50;99.90;;;12.07;79.65;100773.03;4119463;28;20078;-73
2021/05/21 03:07:04;;;;;;;24.08;4.97;;;12.40;99.90;;;12.07;79.64;100778.34;4119593;28;20037;-73
2021/05/21 03:09:06;;;;;;;28.95;5.65;;;12.40;99.90;;;12.08;79.69;100773.88;4119499;28;20015;-73
2021/05/21 03:11:07;;;;;;;20.40;5.07;;;12.50;99.90;;;12.05;79.64;100772.41;4119709;28;20098;-73
2021/05/21 03:13:07;;;;;;;22.98;5.85;;;12.50;99.90;;;11.93;80.03;100757.84;4119451;28;20027;-72
2021/05/21 03:15:09;;;;;;;29.13;4.65;;;12.50;99.90;;;12.05;80.15;100759.19;4120204;28;20081;-72
2021/05/21 03:17:10;;;;;;;20.30;4.15;;;12.50;99.90;;;12.07;80.42;100761.63;4121460;28;20031;-72
2021/05/21 03:19:11;;;;;;;20.65;4.35;;;12.50;99.90;;;12.13;80.02;100763.63;4122424;28;20031;-72
2021/05/21 03:21:12;;;;;;;27.92;5.55;;;12.50;99.90;;;12.01;80.14;100760.47;4122004;28;20086;-72
2021/05/21 03:23:13;;;;;;;23.23;4.55;;;12.50;99.90;;;11.98;81.39;100752.88;4122461;28;20082;-73
2021/05/21 03:25:15;;;;;;;25.17;4.90;;;12.50;99.90;;;12.14;81.53;100770.56;4121130;28;20034;-73
2021/05/21 03:27:16;;;;;;;25.90;6.20;;;12.60;99.90;;;12.14;82.63;100766.13;4122487;28;20026;-72
2021/05/21 03:29:17;;;;;;;27.00;4.80;;;12.60;99.90;;;12.30;82.48;100767.09;4122159;28;20033;-73
2021/05/21 03:31:18;;;;;;;28.83;5.55;;;12.70;99.90;;;12.05;83.44;100739.84;4122401;28;20398;-72
2021/05/21 03:33:19;;;;;;;22.65;6.32;;;12.60;99.90;;;12.03;83.34;100750.59;4122457;28;20506;-73
2021/05/21 03:35:20;;;;;;;23.63;5.35;;;12.60;99.90;;;12.00;83.62;100758.03;4122253;28;20031;-72
2021/05/21 03:37:20;;;;;;;26.52;6.30;;;12.50;99.90;;;11.88;83.33;100754.03;4121895;28;20037;-73
2021/05/21 03:39:21;;;;;;;32.78;6.13;;;12.40;99.90;;;11.96;83.30;100752.22;4122155;28;20066;-72
2021/05/21 03:41:23;;;;;;;32.72;5.97;;;12.40;99.90;;;11.85;82.78;100746.44;4122250;28;20402;-73
2021/05/21 03:43:24;;;;;;;23.42;5.93;;;12.40;99.90;;;11.82;82.78;100747.59;4122279;28;20038;-72
2021/05/21 03:45:25;;;;;;;21.27;5.65;;;12.30;99.90;;;11.92;82.41;100742.13;4120806;28;20035;-72
2021/05/21 03:47:26;;;;;;;22.67;4.75;;;12.30;99.90;;;11.83;82.70;100738.66;4122070;28;20085;-72
2021/05/21 03:49:28;;;;;;;22.42;4.97;;;12.20;99.90;;;11.79;81.83;100740.00;4136838;28;20023;-72
2021/05/21 03:51:30;;;;;;;20.42;4.88;;;12.10;99.90;;;11.72;82.45;100739.00;4121961;28;20034;-73
2021/05/21 03:53:31;;;;;;;27.13;6.00;;;12.10;99.90;;;11.76;81.48;100750.91;4121850;28;20019;-73
2021/05/21 03:55:32;;;;;;;23.17;4.80;;;12.00;99.90;;;11.65;81.63;100753.78;4122110;28;20035;-72
2021/05/21 03:57:34;;;;;;;15.65;4.45;;;12.00;99.90;;;11.62;82.08;100747.03;4121925;28;20030;-72
2021/05/21 03:59:36;;;;;;;23.10;5.53;;;11.90;99.90;;;11.66;82.19;100750.19;4120850;28;20469;-73
2021/05/21 04:01:37;;;;;;;22.27;6.13;;;11.90;99.90;;;11.60;81.87;100750.81;4121611;28;20037;-73
2021/05/21 04:03:38;;;;;;;30.67;7.47;;;11.90;99.90;;;11.62;81.43;100754.94;4121481;28;20069;-72
2021/05/21 04:05:39;;;;;;;22.30;5.50;;;11.90;99.90;;;11.36;82.94;100753.41;4120596;28;20058;-72
2021/05/21 04:07:40;;;;;;;23.70;5.63;;;11.80;99.90;;;11.32;83.43;100758.19;4120380;28;20071;-73
2021/05/21 04:09:40;;;;;;;23.65;4.82;;;11.70;99.90;;;11.44;83.26;100750.81;4136531;28;20482;-72
2021/05/21 04:11:42;;;;;;;19.38;4.38;;;11.70;99.90;;;11.51;83.53;100754.44;4121541;28;20034;-72
2021/05/21 04:13:42;;;;;;;23.02;4.30;;;11.70;99.90;;;11.37;83.71;100745.34;4121622;28;20086;-72
2021/05/21 04:15:43;;;;;;;21.05;4.72;;;11.70;99.90;;;11.36;84.23;100751.59;4121679;28;20035;-72
2021/05/21 04:17:44;;;;;;;24.00;3.83;;;11.60;99.90;;;11.30;84.17;100748.75;4121557;28;20446;-73
2021/05/21 04:19:46;;;;;;;22.80;5.07;;;11.60;99.90;;;11.15;85.58;100739.81;4121450;28;20030;-72
2021/05/21 04:21:47;;;;;;;20.88;4.22;;;11.50;99.90;;;11.16;85.87;100755.50;4120123;28;20030;-73
2021/05/21 04:23:49;;;;;;;23.30;4.55;;;11.50;99.90;;;11.33;85.09;100761.66;4121526;28;20037;-72
2021/05/21 04:25:51;;;;;;;19.95;5.07;;;11.50;99.90;;;11.23;85.37;100760.97;4121307;28;20031;-73
2021/05/21 04:27:51;;;;;;;26.80;5.68;;;11.50;99.90;;;11.14;85.49;100756.66;4120326;28;20105;-73
2021/05/21 04:29:52;;;;;;;23.45;5.40;;;11.50;99.90;;;11.16;85.51;100747.56;4121530;28;20367;-72
2021/05/21 04:31:53;;;;;;;22.45;4.85;;;11.40;99.90;;;11.17;85.09;100758.97;4121460;28;20026;-72
2021/05/21 04:33:54;;;;;;;22.00;4.75;;;11.40;99.90;;;11.33;84.49;100753.72;4121153;28;20034;-73
2021/05/21 04:35:55;;;;;;;25.92;5.43;;;11.40;99.90;;;11.37;83.46;100747.97;4120911;28;20066;-73
2021/05/21 04:37:56;;;;;;;23.95;5.10;;;11.50;99.90;;;11.25;83.74;100745.78;4121184;28;20528;-73
2021/05/21 04:39:57;;;;;;;20.33;5.10;;;11.60;99.90;;;11.24;83.86;100749.41;4121305;28;20038;-73
2021/05/21 04:41:57;;;;;;;21.42;4.63;;;11.50;99.90;;;11.22;83.51;100744.28;4121146;28;20038;-72
2021/05/21 04:43:58;;;;;;;28.27;7.00;;;11.60;99.90;;;11.06;83.80;100734.50;4120958;28;20037;-73
2021/05/21 04:46:01;;;;;;;25.90;5.18;;;11.50;99.90;;;11.20;83.10;100737.53;4119982;28;20031;-73
2021/05/21 04:48:02;;;;;;;17.67;4.07;;;11.50;99.90;;;11.24;83.61;100733.56;4121101;28;20474;-72
2021/05/21 04:50:04;;;;;;;23.27;4.78;;;11.50;99.90;;;11.29;83.27;100731.28;4120955;28;20019;-72
2021/05/21 04:52:08;;;;;;;19.77;6.80;;;11.50;99.90;;;11.18;83.52;100723.63;4120805;28;20031;-72
2021/05/21 04:54:09;;;;;;;24.80;5.70;;;11.50;99.90;;;11.18;83.46;100721.84;4121063;28;20030;-72
2021/05/21 04:56:11;;;;;;;19.25;6.00;;;11.50;99.90;;;11.26;82.99;100721.03;4120975;28;20034;-72
2021/05/21 04:58:12;;;;;;;24.75;4.70;;;11.50;99.90;;;11.16;82.99;100704.50;4119799;28;20029;-72
2021/05/21 05:00:14;;;;;;;25.65;5.65;;;11.60;99.90;;;10.96;83.80;100714.50;4119521;28;20033;-72
2021/05/21 05:02:15;;;;;;;26.00;5.55;;;11.70;99.90;;;11.27;83.07;100723.50;4120667;28;20022;-73
2021/05/21 05:04:16;;;;;;;15.88;4.25;;;11.80;99.90;;;11.38;82.66;100722.41;4120845;28;20046;-73
2021/05/21 05:06:16;;;;;;;20.92;4.45;;;11.80;99.90;;;11.22;82.80;100702.06;4119446;28;20045;-73
2021/05/21 05:08:17;;;;;;;17.88;4.32;;;11.90;99.90;;;11.51;82.11;100722.75;4119635;28;20529;-72
2021/05/21 05:10:18;;;;;;;20.17;4.85;;;12.00;99.90;;;11.53;81.83;100731.31;4120584;28;20030;-72
2021/05/21 05:12:19;;;;;;;24.40;5.82;;;12.00;99.90;;;11.52;82.13;100737.59;4120850;28;20023;-73
2021/05/21 05:14:20;;;;;;;18.33;6.45;;;12.10;99.90;;;11.59;81.78;100736.78;4120693;28;20031;-72
2021/05/21 05:16:21;;;;;;;28.08;5.40;;;12.20;99.90;;;11.69;81.62;100728.72;4120363;28;20027;-73
2021/05/21 05:18:22;;;;;;;20.00;5.53;;;12.30;99.90;;;11.65;80.61;100733.50;4120725;28;20061;-72
2021/05/21 05:20:23;;;;;;;23.45;5.25;;;12.30;99.90;;;11.55;80.63;100729.38;4120737;28;20042;-72
2021/05/21 05:22:25;;;;;;;16.25;4.13;;;12.20;99.90;;;11.56;79.85;100733.63;4120459;28;20061;-72
2021/05/21 05:24:32;;;;;;;21.60;4.65;;;12.20;99.90;;;11.66;80.14;100735.16;4106004;28;20031;-72
2021/05/21 05:26:33;;;;;;;19.00;3.92;;;12.20;99.90;;;11.68;79.73;100727.88;4104587;28;20024;-73
2021/05/21 05:28:34;;;;;;;25.92;6.35;;;12.30;99.90;;;11.82;80.34;100728.28;4103314;28;20534;-73
2021/05/21 05:30:35;;;;;;;23.67;4.30;;;12.30;99.90;;;11.87;79.72;100739.16;4104459;28;20398;-73
2021/05/21 05:32:36;;;;;;;21.52;4.30;;;12.40;99.90;;;11.86;79.56;100729.56;4104298;28;20031;-73
2021/05/21 05:34:37;;;;;;;25.52;4.65;;;12.50;99.90;;;11.87;79.25;100729.41;4104463;28;20046;-73
2021/05/21 05:36:37;;;;;;;23.27;4.18;;;12.60;99.90;;;11.93;79.22;100726.13;4104160;28;20023;-73
2021/05/21 05:38:39;;;;;;;22.30;5.00;;;12.60;99.90;;;11.93;78.27;100718.19;4104149;28;20031;-73
2021/05/21 05:40:40;;;;;;;24.70;4.55;;;12.60;99.90;;;11.97;78.28;100716.06;4103127;28;20519;-72
2021/05/21 05:42:41;;;;;;;15.32;4.57;;;12.60;99.90;;;11.96;77.92;100714.38;4104484;28;20114;-73
2021/05/21 05:44:42;;;;;;;26.10;5.57;;;12.60;99.90;;;11.92;78.01;100719.19;4118770;28;20048;-73
2021/05/21 05:46:43;;;;;;;26.25;4.78;;;12.70;99.90;;;12.03;77.63;100724.16;4102877;28;20024;-73
2021/05/21 05:48:44;;;;;;;21.77;4.68;;;12.70;99.90;;;12.17;76.48;100718.19;4118454;28;20022;-73
2021/05/21 05:50:46;;;;;;;18.95;5.15;;;12.90;99.90;;;11.95;77.17;100700.34;4119827;28;20030;-73
2021/05/21 05:52:47;;;;;;;19.17;3.95;;;13.00;99.90;;;12.10;76.82;100721.66;4120123;28;20073;-73
2021/05/21 05:54:48;;;;;;;21.25;4.40;;;12.90;99.90;;;12.09;76.59;100718.19;4119801;28;20101;-73
2021/05/21 05:56:49;;;;;;;25.00;5.07;;;12.80;99.90;;;12.18;75.61;100708.44;4118758;28;20078;-73
2021/05/21 05:58:50;;;;;;;17.02;4.95;;;12.90;99.90;;;12.25;75.84;100727.91;4119830;28;20030;-73
2021/05/21 06:00:51;;;;;;;15.27;3.65;;;13.00;99.90;;;12.48;74.41;100726.25;4119928;28;20035;-73
2021/05/21 06:02:52;;;;;;;18.33;4.00;;;13.30;99.90;;;12.63;74.13;100719.25;4119702;28;20086;-73
2021/05/21 06:04:53;;;;;;;14.60;4.15;;;13.40;99.90;;;12.66;74.72;100729.47;4119574;28;20585;-73
2021/05/21 06:06:54;;;;;;;17.48;3.45;;;13.40;99.90;;;12.51;74.75;100719.78;4119579;28;20030;-73
2021/05/21 06:08:55;;;;;;;22.48;6.93;;;13.30;99.90;;;12.40;74.57;100717.47;4116529;28;20023;-73
2021/05/21 06:10:57;;;;;;;20.90;4.15;;;13.30;99.90;;;12.47;75.37;100718.47;4125368;28;20034;-73
2021/05/21 06:13:12;;;;;;;23.13;4.00;;;13.30;99.90;;;12.53;75.31;100717.78;4114819;28;20856;-71
2021/05/21 06:15:13;;;;;;;14.00;4.47;;;13.20;99.90;;;12.52;75.48;100716.97;4108949;28;20406;-72
2021/05/21 06:17:18;;;;;;;12.15;4.35;;;13.20;99.90;;;12.48;75.58;100707.72;4119137;28;20031;-72
2021/05/21 06:19:19;;;;;;;18.77;4.57;;;13.20;99.90;;;12.43;74.97;100714.50;4117863;28;20034;-70
2021/05/21 06:21:20;;;;;;;26.20;3.97;;;13.20;99.90;;;12.46;75.06;100714.16;4110226;28;20129;-72
2021/05/21 06:23:21;;;;;;;25.98;4.13;;;13.20;99.90;;;12.50;74.94;100712.84;4119244;28;20106;-73
2021/05/21 06:27:43;;;;;;;14.57;4.28;;;13.20;99.90;;;12.64;75.23;100717.41;4118954;28;20506;-73
2021/05/21 06:29:44;;;;;;;18.63;4.00;;;13.30;99.90;;;12.59;75.01;100723.25;4119339;28;20030;-73
2021/05/21 06:31:44;;;;;;;19.40;3.95;;;13.30;99.90;;;12.63;74.79;100713.16;4119577;28;20023;-73
2021/05/21 06:33:46;;;;;;;13.60;4.95;;;13.30;99.90;;;12.65;75.00;100711.16;4119738;28;20046;-73
2021/05/21 06:35:49;;;;;;;19.80;4.82;;;13.40;99.90;;;12.61;73.95;100705.38;4117985;28;20482;-73
2021/05/21 06:37:49;;;;;;;16.02;3.33;;;13.40;99.90;;;12.67;74.34;100714.44;4134374;28;20042;-73
2021/05/21 06:39:50;;;;;;;20.45;3.58;;;13.30;99.90;;;12.61;75.03;100709.81;4118490;28;20427;-73
2021/05/21 06:41:51;;;;;;;15.73;3.15;;;13.40;99.90;;;12.69;75.51;100707.16;4119792;28;20045;-73
2021/05/21 06:43:52;;;;;;;15.10;4.88;;;13.40;99.90;;;12.61;74.73;100713.31;4119685;28;20062;-74
2021/05/21 06:45:53;;;;;;;19.50;3.97;;;13.50;99.90;;;12.73;74.90;100713.75;4119308;28;20411;-73
2021/05/21 06:47:54;;;;;;;12.60;3.15;;;13.50;99.90;;;12.74;74.24;100713.59;4119526;28;20022;-73
2021/05/21 06:49:55;;;;;;;13.82;4.20;;;13.50;99.90;;;12.59;74.27;100706.53;4119777;28;20019;-72
2021/05/21 06:51:56;;;;;;;19.67;4.22;;;13.50;99.90;;;12.66;74.99;100702.22;4122448;28;20034;-72
2021/05/21 06:53:57;;;;;;;19.85;5.03;;;13.50;99.90;;;12.62;74.19;100708.84;4121628;28;20093;-72
2021/05/21 06:55:58;;;;;;;16.33;4.47;;;13.50;99.90;;;12.66;74.84;100715.44;4122569;28;20027;-73
2021/05/21 06:57:59;;;;;;;26.13;5.63;;;13.50;99.90;;;12.60;76.03;100711.63;4122525;28;20062;-73
2021/05/21 07:00:00;;;;;;;16.88;4.47;;;13.50;99.90;;;12.73;75.26;100717.22;4122675;28;20027;-73
2021/05/21 07:02:01;;;;;;;22.80;5.25;;;13.50;99.90;;;12.84;75.97;100710.75;4122316;28;20034;-73
2021/05/21 07:04:02;;;;;;;26.80;4.95;;;13.70;99.90;;;12.93;76.77;100717.66;4122602;28;20042;-72
2021/05/21 07:06:03;;;;;;;23.33;4.00;;;13.70;99.90;;;13.02;75.09;100705.22;4122110;28;20089;-73
2021/05/21 07:08:04;;;;;;;19.70;3.42;;;13.80;99.90;;;13.04;74.50;100708.50;4122211;28;20498;-73
2021/05/21 07:10:08;;;;;;;18.67;4.35;;;13.90;99.90;;;13.24;74.20;100718.53;4122283;28;20033;-73
2021/05/21 07:12:09;;;;;;;15.00;3.05;;;14.10;99.90;;;13.42;74.38;100705.03;4122591;28;20106;-73
2021/05/21 07:14:10;;;;;;;15.63;4.30;;;14.30;99.90;;;13.61;74.52;100709.03;4122475;28;20030;-73
2021/05/21 07:16:11;;;;;;;18.05;4.00;;;14.60;99.90;;;13.59;73.49;100737.56;4122250;28;20027;-73
2021/05/21 07:18:12;;;;;;;21.20;4.20;;;14.70;99.90;;;13.38;72.60;100721.47;4122053;28;20039;-72
2021/05/21 07:20:14;;;;;;;15.27;4.18;;;14.60;99.90;;;13.46;71.74;100721.41;4122229;28;20027;-73
2021/05/21 07:22:15;;;;;;;19.63;3.67;;;14.60;99.90;;;13.20;70.79;100709.28;4130951;28;20371;-73
2021/05/21 07:24:16;;;;;;;15.65;4.22;;;14.60;99.90;;;13.21;71.38;100713.59;4114914;28;20039;-73
2021/05/21 07:26:17;;;;;;;17.73;3.17;;;14.50;99.90;;;13.51;70.55;100714.56;4105877;28;20047;-72
2021/05/21 07:28:18;;;;;;;21.17;3.90;;;14.60;99.90;;;13.69;71.75;100706.31;4106176;28;20023;-72
2021/05/21 07:30:20;;;;;;;19.23;3.20;;;14.90;99.90;;;13.62;70.89;100708.06;4106277;28;20031;-73
2021/05/21 07:32:21;;;;;;;21.50;3.53;;;14.80;99.90;;;14.03;69.91;100700.59;4106194;28;20102;-71
2021/05/21 07:34:22;;;;;;;17.02;2.92;;;15.10;99.90;;;14.17;68.77;100724.50;4106049;28;20082;-71
2021/05/21 07:36:23;;;;;;;19.95;3.72;;;15.30;99.90;;;13.75;68.95;100690.53;4105856;28;20034;-71
2021/05/21 07:38:24;;;;;;;16.50;3.95;;;15.30;99.90;;;13.70;69.70;100702.69;4105979;28;20034;-71
2021/05/21 07:40:25;;;;;;;16.63;4.00;;;15.10;99.90;;;13.83;70.08;100708.19;4105715;28;20023;-73
2021/05/21 07:42:26;;;;;;;15.75;4.88;;;15.00;99.90;;;13.85;69.79;100722.13;4104875;28;20494;-73
2021/05/21 07:44:27;;;;;;;15.88;3.72;;;15.00;99.90;;;14.03;67.98;100727.13;4101370;28;20030;-72
2021/05/21 07:46:28;;;;;;;18.80;3.45;;;15.10;99.90;;;14.14;68.95;100719.56;4105936;28;20041;-72
2021/05/21 07:48:29;;;;;;;15.70;3.28;;;15.20;99.90;;;14.17;67.46;100716.53;4104564;28;20035;-73
2021/05/21 07:50:31;;;;;;;16.02;3.80;;;15.30;99.90;;;14.47;68.21;100727.22;4088620;29;20435;-71
2021/05/21 07:52:32;;;;;;;17.27;3.80;;;15.50;99.90;;;14.62;66.54;100726.25;4104586;28;20576;-71
2021/05/21 07:54:33;;;;;;;17.42;3.63;;;15.70;99.90;;;14.19;65.91;100698.59;4105013;28;20027;-71
2021/05/21 07:56:34;;;;;;;17.42;3.78;;;15.60;99.90;;;14.37;64.87;100727.50;4105519;28;20027;-71
2021/05/21 07:58:35;;;;;;;16.20;4.28;;;15.50;99.90;;;14.02;65.04;100715.69;4105432;28;20038;-71
2021/05/21 08:00:36;;;;;;;11.57;3.53;;;15.40;99.90;;;14.07;65.90;100721.25;4104696;28;20162;-71
2021/05/21 08:02:37;;;;;;;17.10;4.00;;;15.50;99.90;;;14.01;65.21;100715.88;4104371;28;20118;-71
2021/05/21 08:04:38;;;;;;;14.07;3.00;;;15.40;99.90;;;14.31;64.45;100734.31;4105730;28;20059;-71
2021/05/21 08:06:41;;;;;;;15.13;3.65;;;15.50;99.90;;;14.65;65.83;100725.06;4105145;28;20034;-71
2021/05/21 08:08:42;;;;;;;15.75;4.22;;;15.70;99.90;;;14.81;65.01;100725.69;4106842;28;20051;-71
2021/05/21 08:10:43;;;;;;;15.23;3.67;;;16.00;99.90;;;14.63;65.67;100727.06;4136425;28;20041;-71
2021/05/21 08:12:43;;;;;;;18.67;4.80;;;16.10;99.90;;;14.65;65.07;100714.44;4105601;28;20027;-71
2021/05/21 08:14:47;;;;;;;14.65;4.35;;;16.00;99.90;;;14.62;66.50;100720.09;4105345;28;20074;-71
2021/05/21 08:16:48;;;;;;;18.40;4.57;;;16.00;99.90;;;14.62;67.08;100722.75;4105558;28;20035;-71
2021/05/21 08:18:48;;;;;;;21.77;5.32;;;15.90;99.90;;;14.49;67.11;100734.00;4105435;28;20028;-71
2021/05/21 08:20:50;;;;;;;15.73;4.45;;;15.70;99.90;;;14.13;67.18;100727.69;4104025;28;20038;-71